LFOH/LEH METAR and TAF weather

Enter ICAO airport designator
Station Type Date Time Source
LFOH METAR 2019/12/12 17:00 UTC NOAA

LFOH 121700Z AUTO 23017KT 9999 BKN012/// OVC017/// ///TCU 09/08 Q0984 BECMG 24020G30KT OVC014


Station Type Date Time Source
LFOH Decoded METAR 2019/12/12 17:00 UTC NOAA

La Heve, France (LFOH) 49-31N 000-04E 103M
Dec 12, 2019 - 12:00 PM EST / 2019.12.12 1700 UTC
Wind: from the SW (230 degrees) at 20 MPH (17 KT):0
Visibility: greater than 7 mile(s):0
Sky conditions: overcast
Weather: Towering cumulus clouds observed
Temperature: 48 F (9 C)
Dew Point: 46 F (8 C)
Relative Humidity: 93%
Pressure (altimeter): 29.06 in. Hg (0984 hPa)
ob: LFOH 121700Z AUTO 23017KT 9999 BKN012/// OVC017/// ///TCU 09/08 Q0984 BECMG 24020G30KT OVC014
cycle: 17

Station Type Date Time Source
LFOH TAF 2019/12/12 12:21 UTC NOAA

TAF LFOH 121100Z 1212/1312 18020G30KT 9999 OVC014
TEMPO 1212/1217 3000 RA OVC008
BECMG 1217/1219 24020G30KT
TEMPO 1220/1301 3000 RA BKN008 BKN020CB PROB40 1221/1301 24025G40KT TSRA
FM130100 27020G35KT 9999 SCT030TCU
TEMPO 1301/1312 30030G50KT 3000 SHRA BKN030CB PROB40 1301/1312 TSRA

Example: see airport list